createdAt,value
2019-03-01T00:01:17.906Z,54.80
2019-03-01T00:03:50.948Z,54.27
2019-03-01T00:06:30.500Z,53.03
2019-03-01T00:09:43.143Z,52.33
2019-03-01T00:13:03.094Z,49.20
2019-03-01T00:16:17.951Z,50.70
2019-03-01T00:19:05.523Z,50.97
2019-03-01T00:22:06.054Z,55.93
2019-03-01T00:24:52.217Z,52.20
2019-03-01T00:28:14.861Z,56.50
2019-03-01T00:31:05.604Z,54.13
2019-03-01T00:34:04.505Z,55.47
2019-03-01T00:36:57.725Z,59.30
2019-03-01T00:39:51.414Z,50.03
2019-03-01T00:42:46.524Z,56.00
2019-03-01T00:45:15.817Z,55.77
2019-03-01T00:47:45.106Z,58.93
2019-03-01T00:50:14.951Z,59.13
2019-03-01T00:52:44.281Z,60.57
2019-03-01T00:55:13.750Z,64.37
2019-03-01T00:57:43.115Z,62.90
2019-03-01T01:00:35.417Z,64.50
2019-03-01T01:03:04.994Z,64.47
2019-03-01T01:05:34.270Z,63.17
2019-03-01T01:08:03.652Z,61.50
2019-03-01T01:10:32.920Z,60.30
2019-03-01T01:13:02.330Z,60.33
2019-03-01T01:15:31.597Z,56.97
2019-03-01T01:18:00.877Z,67.47
2019-03-01T01:20:30.099Z,64.17
2019-03-01T01:22:59.409Z,61.53
2019-03-01T01:25:28.674Z,59.77
2019-03-01T01:27:57.974Z,63.67
2019-03-01T01:30:27.253Z,58.57
2019-03-01T01:32:56.548Z,61.10
2019-03-01T01:35:30.600Z,60.77
2019-03-01T01:37:59.988Z,63.07
2019-03-01T01:40:29.316Z,58.03
2019-03-01T01:42:58.557Z,62.83
2019-03-01T01:45:27.828Z,56.60
2019-03-01T01:47:57.123Z,52.20
2019-03-01T01:50:26.416Z,55.17
2019-03-01T01:52:55.852Z,65.07
2019-03-01T01:55:25.176Z,62.90
2019-03-01T01:57:54.559Z,64.00
2019-03-01T02:00:23.818Z,62.80
2019-03-01T02:02:53.213Z,54.90
2019-03-01T02:08:02.441Z,63.00
2019-03-01T02:10:31.890Z,61.50
2019-03-01T02:13:01.284Z,66.97
2019-03-01T02:15:30.564Z,63.63
2019-03-01T02:17:59.853Z,63.87
2019-03-01T02:20:29.207Z,59.40
2019-03-01T02:22:58.701Z,62.57
2019-03-01T02:25:28.031Z,60.70
2019-03-01T02:27:57.362Z,56.10
2019-03-01T02:30:28.751Z,63.93
2019-03-01T02:32:58.142Z,55.47
2019-03-01T02:35:30.107Z,58.37
2019-03-01T02:37:59.453Z,60.23
2019-03-01T02:40:28.788Z,60.00
2019-03-01T02:42:58.135Z,60.10
2019-03-01T02:45:27.402Z,58.53
2019-03-01T02:47:56.692Z,55.83
2019-03-01T02:50:26.067Z,62.33
2019-03-01T02:52:55.422Z,60.20
2019-03-01T02:55:24.946Z,61.70
2019-03-01T02:57:54.309Z,62.27
2019-03-01T03:00:28.210Z,59.97
2019-03-01T03:02:57.566Z,54.50
2019-03-01T03:05:26.891Z,50.80
2019-03-01T03:07:58.040Z,58.43
2019-03-01T03:10:27.377Z,55.43
2019-03-01T03:12:59.351Z,54.53
2019-03-01T03:15:31.761Z,57.57
2019-03-01T03:18:01.153Z,53.27
2019-03-01T03:20:30.594Z,56.10
2019-03-01T03:22:59.903Z,59.67
2019-03-01T03:25:29.168Z,57.93
2019-03-01T03:27:58.562Z,57.53
2019-03-01T03:30:27.954Z,57.00
2019-03-01T03:32:57.409Z,56.87
2019-03-01T03:35:26.769Z,52.23
2019-03-01T03:37:56.047Z,56.10
2019-03-01T03:40:25.436Z,53.50
2019-03-01T03:42:54.709Z,56.10
2019-03-01T03:45:23.988Z,62.57
2019-03-01T03:47:53.307Z,58.33
2019-03-01T03:50:22.592Z,65.63
2019-03-01T03:52:51.938Z,64.87
2019-03-01T03:55:21.350Z,74.30
2019-03-01T03:57:50.696Z,71.77
2019-03-01T04:00:20.466Z,67.77
2019-03-01T04:02:49.803Z,59.80
2019-03-01T04:05:19.178Z,61.43
2019-03-01T04:07:48.482Z,59.30
2019-03-01T04:10:17.748Z,64.27
2019-03-01T04:12:47.035Z,68.37
2019-03-01T04:15:16.549Z,58.50
2019-03-01T04:17:45.847Z,61.80
2019-03-01T04:20:16.530Z,61.67
2019-03-01T04:22:45.821Z,60.63
2019-03-01T04:25:15.154Z,57.70
2019-03-01T04:27:44.734Z,63.47
2019-03-01T04:30:15.608Z,63.77
2019-03-01T04:32:45.057Z,61.10
2019-03-01T04:35:15.017Z,60.80
2019-03-01T04:37:44.383Z,59.97
2019-03-01T04:40:14.718Z,62.53
2019-03-01T04:42:44.010Z,63.67
2019-03-01T04:45:13.745Z,68.80
2019-03-01T04:47:43.114Z,61.23
2019-03-01T04:50:12.632Z,67.13
2019-03-01T04:52:42.394Z,64.07
2019-03-01T04:55:16.767Z,63.60
2019-03-01T04:57:46.110Z,67.93
2019-03-01T05:00:20.573Z,57.17
2019-03-01T05:02:49.873Z,65.27
2019-03-01T05:05:19.313Z,60.30
2019-03-01T05:07:48.768Z,59.93
2019-03-01T05:10:18.181Z,57.77
2019-03-01T05:12:47.381Z,57.33
2019-03-01T05:15:18.255Z,60.73
2019-03-01T05:17:47.786Z,64.00
2019-03-01T05:20:17.159Z,62.83
2019-03-01T05:22:46.441Z,65.90
2019-03-01T05:25:16.022Z,67.57
2019-03-01T05:27:45.283Z,62.20
2019-03-01T05:30:15.581Z,62.17
2019-03-01T05:32:44.925Z,55.27
2019-03-01T05:35:14.553Z,59.57
2019-03-01T05:37:43.869Z,61.40
2019-03-01T05:40:14.663Z,69.50
2019-03-01T05:42:43.976Z,67.10
2019-03-01T05:45:16.191Z,58.73
2019-03-01T05:47:45.481Z,69.93
2019-03-01T05:50:15.103Z,64.97
2019-03-01T05:52:44.406Z,67.80
2019-03-01T05:55:14.010Z,60.87
2019-03-01T05:58:39.686Z,70.73
2019-03-01T06:01:25.072Z,66.90
2019-03-01T06:06:38.105Z,69.47
2019-03-01T06:09:45.019Z,68.03
2019-03-01T06:13:00.406Z,69.67
2019-03-01T06:16:25.944Z,65.63
2019-03-01T06:19:18.751Z,64.50
2019-03-01T06:22:36.803Z,67.80
2019-03-01T06:25:49.637Z,59.57
2019-03-01T06:28:38.857Z,66.67
2019-03-01T06:31:43.827Z,63.37
2019-03-01T06:34:47.303Z,70.80
2019-03-01T06:37:40.406Z,68.93
2019-03-01T06:40:48.258Z,67.70
2019-03-01T06:43:43.096Z,63.83
2019-03-01T06:47:05.943Z,63.03
2019-03-01T06:49:53.958Z,66.83
2019-03-01T06:52:23.425Z,69.87
2019-03-01T06:54:52.913Z,67.17
2019-03-01T06:57:22.218Z,67.47
2019-03-01T06:59:51.517Z,64.00
2019-03-01T07:02:26.715Z,62.63
2019-03-01T07:04:56.005Z,63.20
2019-03-01T07:07:25.351Z,67.40
2019-03-01T07:09:54.659Z,64.77
2019-03-01T07:12:23.943Z,65.83
2019-03-01T07:14:53.318Z,66.60
2019-03-01T07:17:22.673Z,67.40
2019-03-01T07:19:54.948Z,71.57
2019-03-01T07:22:25.981Z,68.23
2019-03-01T07:24:56.619Z,70.30
2019-03-01T07:27:26.691Z,67.25
2019-03-01T07:29:55.987Z,76.80
2019-03-01T07:32:25.295Z,76.47
2019-03-01T07:34:54.623Z,80.33
2019-03-01T07:37:23.910Z,79.13
2019-03-01T07:39:53.205Z,82.90
2019-03-01T07:42:22.511Z,77.17
2019-03-01T07:44:51.815Z,73.20
2019-03-01T07:47:21.118Z,76.00
2019-03-01T07:49:50.485Z,74.80
2019-03-01T07:52:20.368Z,75.80
2019-03-01T07:54:52.738Z,76.83
2019-03-01T07:57:20.650Z,74.80
2019-03-01T07:59:50.039Z,76.70
2019-03-01T08:02:19.381Z,77.20
2019-03-01T08:04:48.979Z,76.13
2019-03-01T08:07:20.486Z,77.93
2019-03-01T08:09:49.350Z,73.57
2019-03-01T08:12:18.844Z,75.07
2019-03-01T08:14:48.181Z,70.83
2019-03-01T08:17:17.548Z,70.17
2019-03-01T08:19:46.851Z,66.80
2019-03-01T08:22:16.239Z,58.57
2019-03-01T08:24:46.547Z,55.60
2019-03-01T08:27:16.587Z,53.67
2019-03-01T08:29:45.908Z,47.13
2019-03-01T08:32:15.261Z,46.80
2019-03-01T08:34:44.570Z,44.23
2019-03-01T08:37:14.465Z,43.53
2019-03-01T08:39:44.936Z,43.07
2019-03-01T08:42:14.179Z,42.90
2019-03-01T08:44:43.569Z,42.27
2019-03-01T08:47:12.857Z,44.53
2019-03-01T08:49:42.229Z,49.93
2019-03-01T08:52:11.510Z,50.63
2019-03-01T08:54:40.924Z,46.93
2019-03-01T08:57:10.255Z,49.13
2019-03-01T08:59:39.662Z,50.33
2019-03-01T09:02:09.028Z,46.30
2019-03-01T09:04:39.236Z,49.13
2019-03-01T09:07:08.566Z,48.47
2019-03-01T09:09:37.838Z,48.93
2019-03-01T09:12:07.254Z,48.07
2019-03-01T09:14:36.531Z,45.57
2019-03-01T09:17:05.914Z,45.93
2019-03-01T09:19:35.210Z,40.83
2019-03-01T09:22:04.468Z,40.73
2019-03-01T09:24:33.811Z,41.27
2019-03-01T09:27:03.081Z,40.00
2019-03-01T09:29:41.282Z,40.17
2019-03-01T09:32:03.360Z,36.47
2019-03-01T09:34:33.057Z,40.63
2019-03-01T09:37:02.515Z,41.23
2019-03-01T09:39:32.673Z,38.23
2019-03-01T09:42:05.357Z,38.70
2019-03-01T09:44:34.629Z,39.20
2019-03-01T09:47:04.623Z,38.03
2019-03-01T09:49:33.942Z,38.70
2019-03-01T09:52:03.308Z,42.10
2019-03-01T09:54:32.695Z,41.30
2019-03-01T09:57:03.849Z,40.20
2019-03-01T09:59:33.166Z,38.53
2019-03-01T10:02:02.486Z,40.33
2019-03-01T10:04:31.852Z,40.67
2019-03-01T10:07:01.261Z,40.80
2019-03-01T10:09:30.596Z,41.70
2019-03-01T10:11:59.992Z,41.13
2019-03-01T10:14:29.484Z,42.37
2019-03-01T10:16:58.838Z,42.80
2019-03-01T10:19:28.198Z,47.20
2019-03-01T10:21:57.525Z,47.70
2019-03-01T10:24:27.154Z,47.93
2019-03-01T10:26:56.460Z,45.93
2019-03-01T10:29:25.766Z,43.97
2019-03-01T10:31:55.172Z,45.80
2019-03-01T10:34:24.548Z,44.17
2019-03-01T10:36:53.895Z,50.80
2019-03-01T10:39:23.385Z,54.23
2019-03-01T10:41:52.699Z,51.63
2019-03-01T10:44:22.085Z,51.17
2019-03-01T10:46:51.464Z,44.67
2019-03-01T10:49:20.798Z,40.93
2019-03-01T10:51:50.324Z,40.87
2019-03-01T10:54:19.675Z,42.57
2019-03-01T10:56:49.079Z,40.83
2019-03-01T10:59:18.389Z,40.77
2019-03-01T11:01:47.662Z,38.90
2019-03-01T11:04:17.041Z,40.00
2019-03-01T11:06:46.410Z,36.13
2019-03-01T11:09:15.804Z,35.90
2019-03-01T11:11:45.145Z,34.90
2019-03-01T11:14:14.451Z,31.63
2019-03-01T11:16:43.781Z,29.37
2019-03-01T11:19:13.083Z,28.43
2019-03-01T11:21:42.395Z,31.50
2019-03-01T11:24:11.695Z,31.03
2019-03-01T11:26:41.581Z,31.57
2019-03-01T11:29:11.038Z,33.30
2019-03-01T11:31:43.667Z,32.70
2019-03-01T11:34:13.055Z,32.63
2019-03-01T11:36:42.450Z,31.87
2019-03-01T11:39:12.127Z,35.20
2019-03-01T11:41:41.482Z,35.47
2019-03-01T11:44:10.883Z,33.67
2019-03-01T11:46:41.686Z,33.50
2019-03-01T11:49:10.967Z,31.40
2019-03-01T11:51:40.781Z,30.63
2019-03-01T11:54:10.108Z,29.33
2019-03-01T11:56:39.556Z,27.77
2019-03-01T11:59:08.864Z,27.20
2019-03-01T12:01:38.206Z,28.00
2019-03-01T12:04:07.558Z,27.83
2019-03-01T12:06:36.908Z,27.70
2019-03-01T12:09:06.803Z,25.83
2019-03-01T12:11:36.205Z,28.17
2019-03-01T12:14:05.597Z,25.63
2019-03-01T12:16:35.006Z,25.90
2019-03-01T12:19:04.345Z,25.90
2019-03-01T12:21:34.736Z,25.07
2019-03-01T12:24:05.925Z,25.87
2019-03-01T12:26:37.328Z,24.77
2019-03-01T12:29:06.367Z,23.40
2019-03-01T12:31:35.772Z,20.90
2019-03-01T12:34:05.316Z,23.03
2019-03-01T12:36:34.673Z,22.70
2019-03-01T12:39:07.428Z,21.63
2019-03-01T12:41:36.709Z,22.30
2019-03-01T12:44:06.048Z,21.70
2019-03-01T12:46:35.390Z,22.83
2019-03-01T12:49:04.794Z,32.03
2019-03-01T12:51:34.097Z,29.13
2019-03-01T12:54:04.478Z,22.43
2019-03-01T12:56:33.782Z,24.00
2019-03-01T12:59:03.236Z,20.60
2019-03-01T13:01:32.621Z,16.43
2019-03-01T13:04:01.936Z,15.77
2019-03-01T13:06:31.272Z,16.17
2019-03-01T13:09:00.654Z,15.63
2019-03-01T13:11:29.953Z,18.40
2019-03-01T13:13:59.233Z,24.47
2019-03-01T13:16:28.529Z,20.27
2019-03-01T13:18:57.806Z,18.43
2019-03-01T13:21:27.135Z,14.97
2019-03-01T13:23:56.494Z,17.67
2019-03-01T13:26:25.869Z,15.57
2019-03-01T13:28:55.309Z,12.20
2019-03-01T13:31:24.689Z,19.57
2019-03-01T13:33:54.028Z,18.90
2019-03-01T13:36:23.342Z,11.30
2019-03-01T13:38:52.633Z,12.23
2019-03-01T13:41:21.957Z,11.60
2019-03-01T13:43:51.318Z,11.60
2019-03-01T13:46:20.681Z,12.33
2019-03-01T13:48:50.829Z,11.23
2019-03-01T13:51:21.086Z,10.70
2019-03-01T13:53:50.378Z,13.30
2019-03-01T13:56:19.672Z,9.23
2019-03-01T13:58:49.015Z,11.63
2019-03-01T14:01:18.337Z,13.77
2019-03-01T14:03:47.738Z,12.47
2019-03-01T14:06:17.019Z,9.13
2019-03-01T14:08:46.405Z,7.60
2019-03-01T14:11:20.758Z,9.87
2019-03-01T14:13:47.709Z,8.97
2019-03-01T14:16:28.283Z,9.23
2019-03-01T14:18:57.834Z,7.87
2019-03-01T14:21:29.748Z,7.27
2019-03-01T14:23:58.067Z,8.00
2019-03-01T14:26:27.443Z,6.90
2019-03-01T14:28:56.817Z,7.83
2019-03-01T14:31:26.230Z,7.10
2019-03-01T14:33:55.562Z,7.17
2019-03-01T14:36:25.009Z,8.67
2019-03-01T14:38:54.367Z,10.70
2019-03-01T14:41:23.893Z,9.93
2019-03-01T14:43:58.586Z,10.90
2019-03-01T14:46:24.410Z,10.67
2019-03-01T14:48:53.654Z,10.90
2019-03-01T14:51:22.992Z,11.33
2019-03-01T14:53:52.390Z,12.33
2019-03-01T14:56:31.178Z,13.70
2019-03-01T14:59:27.174Z,14.60
2019-03-01T15:02:33.069Z,13.67
2019-03-01T15:05:05.468Z,15.60
2019-03-01T15:07:33.560Z,15.10
2019-03-01T15:10:03.012Z,14.60
2019-03-01T15:12:32.767Z,12.87
2019-03-01T15:15:02.275Z,10.30
2019-03-01T15:17:31.576Z,9.23
2019-03-01T15:20:00.906Z,9.40
2019-03-01T15:22:30.330Z,8.80
2019-03-01T15:24:59.677Z,7.50
2019-03-01T15:27:30.827Z,7.57
2019-03-01T15:30:00.291Z,7.83
2019-03-01T15:32:31.273Z,25.20
2019-03-01T15:35:03.887Z,8.60
2019-03-01T15:37:35.025Z,7.03
2019-03-01T15:40:02.946Z,7.20
2019-03-01T15:42:32.243Z,6.40
2019-03-01T15:45:04.992Z,6.83
2019-03-01T15:47:32.731Z,6.17
2019-03-01T15:50:02.023Z,6.37
2019-03-01T15:52:31.370Z,5.97
2019-03-01T15:55:01.557Z,5.97
2019-03-01T15:57:30.921Z,6.77
2019-03-01T16:00:00.286Z,6.67
2019-03-01T16:02:29.686Z,6.63
2019-03-01T16:04:58.982Z,6.00
2019-03-01T16:07:29.012Z,7.53
2019-03-01T16:10:01.097Z,9.00
2019-03-01T16:12:32.392Z,13.20
2019-03-01T16:15:01.767Z,11.13
2019-03-01T16:17:31.385Z,8.00
2019-03-01T16:20:00.683Z,8.57
2019-03-01T16:22:30.074Z,9.23
2019-03-01T16:24:59.477Z,8.47
2019-03-01T16:27:28.787Z,7.83
2019-03-01T16:29:58.084Z,7.07
2019-03-01T16:32:27.480Z,6.73
2019-03-01T16:35:01.990Z,6.07
2019-03-01T16:37:31.390Z,8.60
2019-03-01T16:40:01.471Z,7.87
2019-03-01T16:42:38.191Z,7.57
2019-03-01T16:45:02.325Z,7.33
2019-03-01T16:47:31.737Z,6.90
2019-03-01T16:50:02.725Z,7.63
2019-03-01T16:52:33.316Z,7.43
2019-03-01T16:55:03.658Z,6.67
2019-03-01T16:57:33.098Z,6.57
2019-03-01T17:00:02.503Z,7.17
2019-03-01T17:02:31.811Z,6.93
2019-03-01T17:05:03.672Z,7.23
2019-03-01T17:07:32.427Z,7.27
2019-03-01T17:10:01.733Z,8.33
2019-03-01T17:12:31.265Z,11.37
2019-03-01T17:15:01.381Z,11.90
2019-03-01T17:17:33.020Z,11.07
2019-03-01T17:20:03.663Z,9.03
2019-03-01T17:22:33.036Z,13.87
2019-03-01T17:25:02.308Z,15.53
2019-03-01T17:27:31.591Z,14.67
2019-03-01T17:30:01.022Z,15.47
2019-03-01T17:32:30.283Z,13.10
2019-03-01T17:35:01.133Z,13.10
2019-03-01T17:37:32.365Z,14.60
2019-03-01T17:40:01.481Z,15.77
2019-03-01T17:42:30.754Z,15.73
2019-03-01T17:45:00.028Z,22.10
2019-03-01T17:47:32.208Z,17.67
2019-03-01T17:50:01.934Z,16.43
2019-03-01T17:52:33.730Z,13.30
2019-03-01T17:55:02.781Z,14.83
2019-03-01T17:57:33.164Z,13.90
2019-03-01T18:00:08.595Z,15.47
2019-03-01T18:02:38.043Z,15.37
2019-03-01T18:05:07.800Z,14.57
2019-03-01T18:07:40.185Z,13.43
2019-03-01T18:10:11.544Z,15.10
2019-03-01T18:12:40.998Z,12.63
2019-03-01T18:15:12.306Z,14.10
2019-03-01T18:17:42.579Z,15.17
2019-03-01T18:20:12.245Z,13.43
2019-03-01T18:22:41.541Z,13.33
2019-03-01T18:25:13.938Z,13.80
2019-03-01T18:27:43.236Z,13.67
2019-03-01T18:30:16.031Z,13.77
2019-03-01T18:32:46.584Z,14.00
2019-03-01T18:35:15.971Z,13.53
2019-03-01T18:37:45.264Z,15.77
2019-03-01T18:40:16.902Z,17.13
2019-03-01T18:42:45.868Z,16.13
2019-03-01T18:45:16.544Z,30.57
2019-03-01T18:47:45.903Z,41.13
2019-03-01T18:50:18.131Z,49.20
2019-03-01T18:52:49.602Z,22.00
2019-03-01T18:55:18.491Z,18.70
2019-03-01T18:57:47.898Z,35.07
2019-03-01T19:00:19.609Z,27.17
2019-03-01T19:02:49.006Z,34.73
2019-03-01T19:05:18.332Z,19.50
2019-03-01T19:07:47.600Z,23.13
2019-03-01T19:10:29.412Z,27.30
2019-03-01T19:12:58.666Z,27.40
2019-03-01T19:15:28.107Z,30.30
2019-03-01T19:17:57.459Z,22.30
2019-03-01T19:20:27.290Z,26.03
2019-03-01T19:22:56.663Z,27.57
2019-03-01T19:25:26.581Z,30.93
2019-03-01T19:27:56.079Z,28.50
2019-03-01T19:30:25.512Z,25.93
2019-03-01T19:32:54.801Z,25.27
2019-03-01T19:35:28.255Z,21.60
2019-03-01T19:37:55.866Z,34.67
2019-03-01T19:40:25.229Z,16.57
2019-03-01T19:42:54.571Z,19.73
2019-03-01T19:45:26.170Z,16.17
2019-03-01T19:48:01.599Z,12.83
2019-03-01T19:50:26.620Z,10.27
2019-03-01T19:52:55.886Z,11.40
2019-03-01T19:55:25.233Z,10.47
2019-03-01T19:57:54.544Z,10.00
2019-03-01T20:00:24.322Z,11.97
2019-03-01T20:02:53.810Z,12.83
2019-03-01T20:05:27.818Z,9.43
2019-03-01T20:07:55.651Z,7.70
2019-03-01T20:10:25.054Z,8.57
2019-03-01T20:12:54.392Z,6.93
2019-03-01T20:15:24.093Z,8.60
2019-03-01T20:17:53.487Z,7.97
2019-03-01T20:20:22.857Z,6.30
2019-03-01T20:22:54.098Z,6.00
2019-03-01T20:25:23.338Z,6.30
2019-03-01T20:27:52.740Z,6.47
2019-03-01T20:30:28.708Z,6.97
2019-03-01T20:32:54.602Z,8.43
2019-03-01T20:35:25.828Z,7.17
2019-03-01T20:37:54.959Z,7.33
2019-03-01T20:40:26.812Z,6.70
2019-03-01T20:42:55.910Z,6.63
2019-03-01T20:45:29.927Z,7.33
2019-03-01T20:47:58.820Z,6.47
2019-03-01T20:50:28.193Z,6.47
2019-03-01T20:52:57.476Z,6.73
2019-03-01T20:55:26.885Z,5.60
2019-03-01T20:57:56.281Z,5.57
2019-03-01T21:00:27.349Z,4.77
2019-03-01T21:02:57.549Z,4.97
2019-03-01T21:05:28.870Z,4.77
2019-03-01T21:07:57.994Z,4.60
2019-03-01T21:10:27.302Z,4.80
2019-03-01T21:12:56.771Z,5.10
2019-03-01T21:15:26.673Z,5.00
2019-03-01T21:17:56.855Z,4.67
2019-03-01T21:20:27.124Z,4.53
2019-03-01T21:22:56.508Z,5.50
2019-03-01T21:25:25.891Z,5.47
2019-03-01T21:27:57.694Z,6.30
2019-03-01T21:30:27.278Z,5.47
2019-03-01T21:32:56.587Z,5.13
2019-03-01T21:35:25.918Z,5.70
2019-03-01T21:37:55.372Z,5.00
2019-03-01T21:40:24.669Z,5.33
2019-03-01T21:42:57.381Z,4.83
2019-03-01T21:45:24.917Z,5.23
2019-03-01T21:47:54.188Z,5.07
2019-03-01T21:50:23.585Z,5.43
2019-03-01T21:52:52.898Z,5.73
2019-03-01T21:55:25.024Z,4.97
2019-03-01T21:57:53.434Z,5.03
2019-03-01T22:00:25.231Z,5.00
2019-03-01T22:02:54.474Z,4.03
2019-03-01T22:05:23.826Z,4.70
2019-03-01T22:07:53.412Z,5.00
2019-03-01T22:10:22.698Z,5.10
2019-03-01T22:12:52.033Z,5.27
2019-03-01T22:15:25.483Z,4.10
2019-03-01T22:17:53.557Z,4.40
2019-03-01T22:20:23.061Z,3.97
2019-03-01T22:22:52.454Z,4.00
2019-03-01T22:25:21.867Z,4.53
2019-03-01T22:27:51.130Z,3.83
2019-03-01T22:30:30.398Z,4.63
2019-03-01T22:32:59.745Z,4.60
2019-03-01T22:35:29.260Z,4.20
2019-03-01T22:38:01.179Z,4.90
2019-03-01T22:40:29.611Z,4.70
2019-03-01T22:42:58.962Z,4.47
2019-03-01T22:45:28.323Z,3.93
2019-03-01T22:47:57.699Z,3.63
2019-03-01T22:50:27.000Z,5.17
2019-03-01T22:52:56.308Z,4.97
2019-03-01T22:55:25.659Z,5.00
2019-03-01T22:57:57.826Z,4.20
2019-03-01T23:01:25.562Z,4.62
2019-03-01T23:04:00.496Z,4.07
2019-03-01T23:06:29.852Z,5.00
2019-03-01T23:08:59.165Z,4.43
2019-03-01T23:11:28.707Z,4.50
2019-03-01T23:13:59.489Z,4.30
2019-03-01T23:16:28.861Z,4.03
2019-03-01T23:18:58.166Z,4.83
2019-03-01T23:21:27.511Z,4.27
2019-03-01T23:23:59.623Z,4.73
2019-03-01T23:26:27.755Z,4.40
2019-03-01T23:28:57.133Z,6.00
2019-03-01T23:31:26.479Z,4.90
2019-03-01T23:33:55.798Z,5.00
2019-03-01T23:36:28.393Z,5.00
2019-03-01T23:38:56.174Z,5.23
2019-03-01T23:41:25.417Z,5.33
2019-03-01T23:43:54.765Z,5.60
2019-03-01T23:46:25.665Z,5.90
2019-03-01T23:48:54.964Z,5.30
2019-03-01T23:51:24.277Z,5.63
2019-03-01T23:53:53.627Z,5.47
2019-03-01T23:56:23.004Z,6.27
2019-03-01T23:58:52.996Z,5.60
